Vernon, Ohio
Current Conditions -  °F | °C
As of 4:51 PM on Tuesday 25 Nov 2014 (Local Time) from KYNG Reporting Station
Overcast Overcast  
Wind Chill: 28°   Ceiling: 3200
Heat Index: 36°   Visibility: 10mi
Dew Point: 25°   Wind: 12mph
Humidity: 64%   Direction: 270°W
Pressure: 30.09"   Gusts: NA
Location:  41.4393°N, 80.5815°W
Report Text: KYNG 252151Z 27010KT 10SM OVC032 02/M04 A3009 RMK AO2 SLP200 T00221039
Loading
Personal Weather Stations






























Interactive Weather Map New forecast layout! Learn more

10-Day Weather Forecast

Advertisements
Track Severe Weather on mobile